createdAt,value
2018-07-03T00:01:20.619Z,37.40
2018-07-03T00:06:14.368Z,37.50
2018-07-03T00:08:41.296Z,37.40
2018-07-03T00:11:08.196Z,37.40
2018-07-03T00:13:35.092Z,37.50
2018-07-03T00:16:02.012Z,37.60
2018-07-03T00:18:28.948Z,37.60
2018-07-03T00:20:55.828Z,37.60
2018-07-03T00:23:22.776Z,37.60
2018-07-03T00:25:49.659Z,37.60
2018-07-03T00:28:16.587Z,37.70
2018-07-03T00:30:43.476Z,37.80
2018-07-03T00:33:10.403Z,37.70
2018-07-03T00:35:37.288Z,37.60
2018-07-03T00:38:04.273Z,37.70
2018-07-03T00:40:31.172Z,37.80
2018-07-03T00:42:58.110Z,38.00
2018-07-03T00:45:25.005Z,38.00
2018-07-03T00:47:51.945Z,37.90
2018-07-03T00:50:18.849Z,38.10
2018-07-03T00:52:45.907Z,38.10
2018-07-03T00:55:12.787Z,38.20
2018-07-03T00:57:39.708Z,38.20
2018-07-03T01:00:12.301Z,38.20
2018-07-03T01:02:39.208Z,38.20
2018-07-03T01:05:06.171Z,38.40
2018-07-03T01:07:33.071Z,38.40
2018-07-03T01:09:59.983Z,38.40
2018-07-03T01:12:26.864Z,38.50
2018-07-03T01:14:53.787Z,38.50
2018-07-03T01:17:20.723Z,38.50
2018-07-03T01:19:47.656Z,38.70
2018-07-03T01:22:14.536Z,39.30
2018-07-03T01:24:41.459Z,38.90
2018-07-03T01:27:08.344Z,38.80
2018-07-03T01:29:35.273Z,38.90
2018-07-03T01:32:02.172Z,39.00
2018-07-03T01:34:29.131Z,39.00
2018-07-03T01:36:56.264Z,39.10
2018-07-03T01:39:23.215Z,39.20
2018-07-03T01:41:50.107Z,39.10
2018-07-03T01:44:17.035Z,39.20
2018-07-03T01:46:43.916Z,39.10
2018-07-03T01:49:10.843Z,39.20
2018-07-03T01:51:37.719Z,39.10
2018-07-03T01:54:04.648Z,39.10
2018-07-03T01:56:31.539Z,39.30
2018-07-03T01:58:58.523Z,39.30
2018-07-03T02:01:25.403Z,39.30
2018-07-03T02:03:52.340Z,39.30
2018-07-03T02:06:19.232Z,39.10
2018-07-03T02:08:46.160Z,39.30
2018-07-03T02:11:13.056Z,39.40
2018-07-03T02:13:39.956Z,39.50
2018-07-03T02:16:06.991Z,39.50
2018-07-03T02:18:34.112Z,39.60
2018-07-03T02:21:01.016Z,39.50
2018-07-03T02:23:28.041Z,39.60
2018-07-03T02:25:54.968Z,39.60
2018-07-03T02:28:21.864Z,39.60
2018-07-03T02:30:48.769Z,39.70
2018-07-03T02:33:15.692Z,39.70
2018-07-03T02:35:42.587Z,39.80
2018-07-03T02:38:09.527Z,39.80
2018-07-03T02:40:36.463Z,39.90
2018-07-03T02:43:03.403Z,40.00
2018-07-03T02:45:30.293Z,39.90
2018-07-03T02:47:57.204Z,40.00
2018-07-03T02:50:24.104Z,40.00
2018-07-03T02:52:51.026Z,40.00
2018-07-03T02:55:17.910Z,40.10
2018-07-03T02:57:44.843Z,40.10
2018-07-03T03:00:11.799Z,40.20
2018-07-03T03:02:38.724Z,40.10
2018-07-03T03:05:05.721Z,40.20
2018-07-03T03:07:32.652Z,40.30
2018-07-03T03:09:59.573Z,40.40
2018-07-03T03:12:26.486Z,40.40
2018-07-03T03:14:53.396Z,40.40
2018-07-03T03:17:20.273Z,40.50
2018-07-03T03:19:47.196Z,40.50
2018-07-03T03:22:14.124Z,40.20
2018-07-03T03:24:41.048Z,40.60
2018-07-03T03:27:07.943Z,40.60
2018-07-03T03:29:35.013Z,40.60
2018-07-03T03:32:02.896Z,40.70
2018-07-03T03:34:29.832Z,40.70
2018-07-03T03:36:56.725Z,40.80
2018-07-03T03:39:23.647Z,40.60
2018-07-03T03:41:50.904Z,40.70
2018-07-03T03:44:17.840Z,40.80
2018-07-03T03:46:44.744Z,40.90
2018-07-03T03:49:11.672Z,40.80
2018-07-03T03:51:38.593Z,40.90
2018-07-03T03:54:05.528Z,41.00
2018-07-03T03:56:32.448Z,41.10
2018-07-03T03:58:59.352Z,41.00
2018-07-03T04:01:26.400Z,41.20
2018-07-03T04:03:53.303Z,41.60
2018-07-03T04:06:20.203Z,41.00
2018-07-03T04:08:47.109Z,41.00
2018-07-03T04:11:14.019Z,41.00
2018-07-03T04:13:40.920Z,41.10
2018-07-03T04:16:07.865Z,41.10
2018-07-03T04:18:35.350Z,41.10
2018-07-03T04:21:04.267Z,41.00
2018-07-03T04:23:31.497Z,41.00
2018-07-03T04:25:58.700Z,41.00
2018-07-03T04:28:25.771Z,41.00
2018-07-03T04:30:52.680Z,41.00
2018-07-03T04:33:19.678Z,41.00
2018-07-03T04:35:46.603Z,41.60
2018-07-03T04:38:13.508Z,41.00
2018-07-03T04:40:40.428Z,41.00
2018-07-03T04:43:07.300Z,41.00
2018-07-03T04:45:34.220Z,41.00
2018-07-03T04:48:01.146Z,40.90
2018-07-03T04:50:28.146Z,40.90
2018-07-03T04:52:55.055Z,41.00
2018-07-03T04:55:21.964Z,41.00
2018-07-03T04:57:48.864Z,40.90
2018-07-03T05:00:15.768Z,41.00
2018-07-03T05:02:42.711Z,40.90
2018-07-03T05:05:09.640Z,40.90
2018-07-03T05:07:36.775Z,40.90
2018-07-03T05:12:30.600Z,40.90
2018-07-03T05:14:57.539Z,40.90
2018-07-03T05:17:24.516Z,40.80
2018-07-03T05:19:52.876Z,40.90
2018-07-03T05:22:19.776Z,40.80
2018-07-03T05:24:46.912Z,40.80
2018-07-03T05:27:14.424Z,40.90
2018-07-03T05:29:41.324Z,40.90
2018-07-03T05:32:08.255Z,40.90
2018-07-03T05:34:36.972Z,41.40
2018-07-03T05:37:03.909Z,40.80
2018-07-03T05:39:30.803Z,40.90
2018-07-03T05:41:57.863Z,40.90
2018-07-03T05:44:25.507Z,40.90
2018-07-03T05:46:52.446Z,40.90
2018-07-03T05:49:19.363Z,40.90
2018-07-03T05:51:46.360Z,40.90
2018-07-03T05:54:13.285Z,40.90
2018-07-03T05:56:40.234Z,41.00
2018-07-03T05:59:07.352Z,41.00
2018-07-03T06:01:34.530Z,41.00
2018-07-03T06:04:01.475Z,40.90
2018-07-03T06:06:28.392Z,41.00
2018-07-03T06:08:55.295Z,41.20
2018-07-03T06:11:22.212Z,41.50
2018-07-03T06:13:49.136Z,41.80
2018-07-03T06:16:16.065Z,41.70
2018-07-03T06:18:49.599Z,42.40
2018-07-03T06:21:16.527Z,43.10
2018-07-03T06:23:43.468Z,42.70
2018-07-03T06:26:10.383Z,42.70
2018-07-03T06:28:37.299Z,42.60
2018-07-03T06:31:04.324Z,42.60
2018-07-03T06:33:31.203Z,42.60
2018-07-03T06:35:58.652Z,42.70
2018-07-03T06:38:25.560Z,42.60
2018-07-03T06:40:52.476Z,42.70
2018-07-03T06:43:19.372Z,42.60
2018-07-03T06:45:46.276Z,42.60
2018-07-03T06:48:13.184Z,42.60
2018-07-03T06:50:40.116Z,42.50
2018-07-03T06:53:07.045Z,42.50
2018-07-03T06:55:33.956Z,42.50
2018-07-03T06:58:00.848Z,42.50
2018-07-03T07:00:27.840Z,42.50
2018-07-03T07:02:54.712Z,42.40
2018-07-03T07:05:21.656Z,42.40
2018-07-03T07:07:48.578Z,42.40
2018-07-03T07:10:15.510Z,42.30
2018-07-03T07:12:42.392Z,42.30
2018-07-03T07:15:09.366Z,42.30
2018-07-03T07:17:36.280Z,42.20
2018-07-03T07:20:03.360Z,42.20
2018-07-03T07:22:30.783Z,42.20
2018-07-03T07:24:57.707Z,42.20
2018-07-03T07:27:24.601Z,42.10
2018-07-03T07:29:51.543Z,42.10
2018-07-03T07:32:18.439Z,42.10
2018-07-03T07:34:45.363Z,42.10
2018-07-03T07:37:12.276Z,42.10
2018-07-03T07:39:39.232Z,42.10
2018-07-03T07:42:06.110Z,42.10
2018-07-03T07:44:33.035Z,42.00
2018-07-03T07:47:00.048Z,42.10
2018-07-03T07:49:26.995Z,42.10
2018-07-03T07:51:53.923Z,42.10
2018-07-03T07:54:20.829Z,42.00
2018-07-03T07:56:47.753Z,42.00
2018-07-03T07:59:14.635Z,42.00
2018-07-03T08:01:41.607Z,42.00
2018-07-03T08:04:08.486Z,42.00
2018-07-03T08:06:35.413Z,42.00
2018-07-03T08:09:02.762Z,41.90
2018-07-03T08:11:29.692Z,42.00
2018-07-03T08:13:56.609Z,41.90
2018-07-03T08:16:23.540Z,41.90
2018-07-03T08:18:50.439Z,41.90
2018-07-03T08:23:44.198Z,41.90
2018-07-03T08:26:11.147Z,41.90
2018-07-03T08:28:38.083Z,41.90
2018-07-03T08:31:05.044Z,41.90
2018-07-03T08:33:31.952Z,41.90
2018-07-03T08:35:58.892Z,41.80
2018-07-03T08:38:25.812Z,41.90
2018-07-03T08:40:52.704Z,41.90
2018-07-03T08:43:19.618Z,41.90
2018-07-03T08:45:46.524Z,41.90
2018-07-03T08:48:13.440Z,41.90
2018-07-03T08:50:40.383Z,41.90
2018-07-03T08:53:07.294Z,41.80
2018-07-03T08:55:34.184Z,41.90
2018-07-03T08:58:01.107Z,42.00
2018-07-03T09:00:28.004Z,42.00
2018-07-03T09:02:54.936Z,41.90
2018-07-03T09:05:21.840Z,42.00
2018-07-03T09:07:48.775Z,42.00
2018-07-03T09:10:15.678Z,41.90
2018-07-03T09:12:42.607Z,42.00
2018-07-03T09:15:09.732Z,42.00
2018-07-03T09:17:36.696Z,41.90
2018-07-03T09:20:04.008Z,42.00
2018-07-03T09:22:31.619Z,42.80
2018-07-03T09:24:58.529Z,43.10
2018-07-03T09:27:25.440Z,42.60
2018-07-03T09:29:52.327Z,41.80
2018-07-03T09:32:19.249Z,41.00
2018-07-03T09:34:46.148Z,41.20
2018-07-03T09:37:13.113Z,40.60
2018-07-03T09:39:40.008Z,40.60
2018-07-03T09:42:06.972Z,40.70
2018-07-03T09:44:33.864Z,40.80
2018-07-03T09:47:00.832Z,40.80
2018-07-03T09:49:27.732Z,40.80
2018-07-03T09:51:54.666Z,40.70
2018-07-03T09:54:22.240Z,40.50
2018-07-03T09:56:49.139Z,40.10
2018-07-03T09:59:16.043Z,39.80
2018-07-03T10:01:42.970Z,39.90
2018-07-03T10:04:09.876Z,40.30
2018-07-03T10:06:36.788Z,40.60
2018-07-03T10:09:05.439Z,40.60
2018-07-03T10:11:32.328Z,40.50
2018-07-03T10:13:59.240Z,41.00
2018-07-03T10:16:26.151Z,40.50
2018-07-03T10:18:53.089Z,40.40
2018-07-03T10:21:19.971Z,40.40
2018-07-03T10:23:46.867Z,40.20
2018-07-03T10:26:13.771Z,39.80
2018-07-03T10:28:40.667Z,39.30
2018-07-03T10:31:07.783Z,39.30
2018-07-03T10:33:34.684Z,39.30
2018-07-03T10:36:01.583Z,39.50
2018-07-03T10:38:28.536Z,39.70
2018-07-03T10:40:55.444Z,39.70
2018-07-03T10:43:22.340Z,39.70
2018-07-03T10:45:49.252Z,39.80
2018-07-03T10:48:16.145Z,39.80
2018-07-03T10:50:43.042Z,39.80
2018-07-03T10:53:09.951Z,39.70
2018-07-03T10:55:36.854Z,39.70
2018-07-03T10:58:03.769Z,39.60
2018-07-03T11:00:30.716Z,39.50
2018-07-03T11:02:57.644Z,38.80
2018-07-03T11:05:24.621Z,38.30
2018-07-03T11:07:51.516Z,38.60
2018-07-03T11:10:18.440Z,38.80
2018-07-03T11:12:45.338Z,39.10
2018-07-03T11:15:12.311Z,39.20
2018-07-03T11:17:39.196Z,39.30
2018-07-03T11:20:06.626Z,39.40
2018-07-03T11:22:33.784Z,39.40
2018-07-03T11:25:00.724Z,39.20
2018-07-03T11:27:27.616Z,39.10
2018-07-03T11:29:54.815Z,38.80
2018-07-03T11:32:21.715Z,38.50
2018-07-03T11:34:48.652Z,38.60
2018-07-03T11:37:15.523Z,38.60
2018-07-03T11:39:42.460Z,38.80
2018-07-03T11:42:09.339Z,38.60
2018-07-03T11:44:36.254Z,38.60
2018-07-03T11:47:03.144Z,38.60
2018-07-03T11:49:30.072Z,38.80
2018-07-03T11:51:57.026Z,39.00
2018-07-03T11:54:23.919Z,39.10
2018-07-03T11:56:50.844Z,39.10
2018-07-03T11:59:17.727Z,39.30
2018-07-03T12:01:44.746Z,39.40
2018-07-03T12:04:11.958Z,39.50
2018-07-03T12:06:38.896Z,39.50
2018-07-03T12:09:06.844Z,39.50
2018-07-03T12:11:33.776Z,39.50
2018-07-03T12:14:00.679Z,39.60
2018-07-03T12:16:27.603Z,40.30
2018-07-03T12:18:57.450Z,40.10
2018-07-03T12:21:24.503Z,40.40
2018-07-03T12:23:51.411Z,40.90
2018-07-03T12:26:18.362Z,40.90
2018-07-03T12:28:45.593Z,41.20
2018-07-03T12:31:12.512Z,41.10
2018-07-03T12:33:39.403Z,41.20
2018-07-03T12:36:07.204Z,41.40
2018-07-03T12:38:34.092Z,41.40
2018-07-03T12:41:01.042Z,41.40
2018-07-03T12:43:27.934Z,41.60
2018-07-03T12:45:54.846Z,41.70
2018-07-03T12:48:21.752Z,41.70
2018-07-03T12:50:48.692Z,41.60
2018-07-03T12:53:15.636Z,41.40
2018-07-03T12:55:42.605Z,41.50
2018-07-03T12:58:09.512Z,41.60
2018-07-03T13:00:36.465Z,41.40
2018-07-03T13:03:03.399Z,41.50
2018-07-03T13:05:30.980Z,41.30
2018-07-03T13:07:58.423Z,41.40
2018-07-03T13:10:25.947Z,41.70
2018-07-03T13:12:53.331Z,41.80
2018-07-03T13:15:22.525Z,41.80
2018-07-03T13:17:49.778Z,42.00
2018-07-03T13:20:16.723Z,42.20
2018-07-03T13:22:43.628Z,42.20
2018-07-03T13:25:11.559Z,42.20
2018-07-03T13:27:38.472Z,42.40
2018-07-03T13:30:05.755Z,42.30
2018-07-03T13:32:33.591Z,42.30
2018-07-03T13:35:01.253Z,42.30
2018-07-03T13:37:28.325Z,42.40
2018-07-03T13:39:55.280Z,42.30
2018-07-03T13:42:22.537Z,42.30
2018-07-03T13:44:49.472Z,42.10
2018-07-03T13:47:16.392Z,42.20
2018-07-03T13:49:43.399Z,42.20
2018-07-03T13:52:10.323Z,42.50
2018-07-03T13:54:37.697Z,42.60
2018-07-03T13:57:04.624Z,42.40
2018-07-03T13:59:31.967Z,42.20
2018-07-03T14:01:59.616Z,42.20
2018-07-03T14:04:26.553Z,42.10
2018-07-03T14:06:53.885Z,41.70
2018-07-03T14:09:21.561Z,41.60
2018-07-03T14:11:48.603Z,41.70
2018-07-03T14:14:16.387Z,41.50
2018-07-03T14:16:43.382Z,41.10
2018-07-03T14:19:10.933Z,40.80
2018-07-03T14:21:38.063Z,40.20
2018-07-03T14:24:04.980Z,40.00
2018-07-03T14:26:32.176Z,40.40
2018-07-03T14:28:59.570Z,40.60
2018-07-03T14:31:27.068Z,41.30
2018-07-03T14:33:53.980Z,41.90
2018-07-03T14:36:20.971Z,42.20
2018-07-03T14:38:47.824Z,42.00
2018-07-03T14:41:14.744Z,41.30
2018-07-03T14:43:42.416Z,41.10
2018-07-03T14:46:09.408Z,42.60
2018-07-03T14:48:36.957Z,41.40
2018-07-03T14:51:04.216Z,41.10
2018-07-03T14:53:31.674Z,41.10
2018-07-03T14:55:59.176Z,41.20
2018-07-03T14:58:26.788Z,41.30
2018-07-03T15:00:53.732Z,41.40
2018-07-03T15:03:21.027Z,41.40
2018-07-03T15:05:48.343Z,42.20
2018-07-03T15:08:15.256Z,41.50
2018-07-03T15:10:42.359Z,41.60
2018-07-03T15:13:09.796Z,41.60
2018-07-03T15:15:36.788Z,42.00
2018-07-03T15:18:04.642Z,42.10
2018-07-03T15:20:32.225Z,42.30
2018-07-03T15:22:59.488Z,42.30
2018-07-03T15:25:26.518Z,42.50
2018-07-03T15:27:53.745Z,42.70
2018-07-03T15:30:21.080Z,42.80
2018-07-03T15:32:50.038Z,43.00
2018-07-03T15:35:17.652Z,42.90
2018-07-03T15:37:45.593Z,42.90
2018-07-03T15:40:12.951Z,43.40
2018-07-03T15:42:40.188Z,43.60
2018-07-03T15:45:08.921Z,43.30
2018-07-03T15:47:36.236Z,43.50
2018-07-03T15:50:04.109Z,43.80
2018-07-03T15:52:31.924Z,43.50
2018-07-03T15:54:58.901Z,43.40
2018-07-03T15:57:26.278Z,43.50
2018-07-03T15:59:53.528Z,43.60
2018-07-03T16:02:20.664Z,43.90
2018-07-03T16:05:03.000Z,43.90
2018-07-03T16:07:35.841Z,44.10
2018-07-03T16:10:02.832Z,43.90
2018-07-03T16:12:30.944Z,43.40
2018-07-03T16:14:57.888Z,43.10
2018-07-03T16:17:25.163Z,42.70
2018-07-03T16:19:58.146Z,42.40
2018-07-03T16:22:25.121Z,42.40
2018-07-03T16:24:52.534Z,42.50
2018-07-03T16:27:20.040Z,42.50
2018-07-03T16:29:47.016Z,42.60
2018-07-03T16:34:40.776Z,42.50
2018-07-03T16:37:08.242Z,42.80
2018-07-03T16:39:35.484Z,42.40
2018-07-03T16:42:03.037Z,42.40
2018-07-03T16:44:30.575Z,42.50
2018-07-03T16:46:58.338Z,43.30
2018-07-03T16:49:25.396Z,43.20
2018-07-03T16:51:53.344Z,43.30
2018-07-03T16:54:20.798Z,43.40
2018-07-03T16:56:47.763Z,43.30
2018-07-03T16:59:14.792Z,43.10
2018-07-03T17:01:41.700Z,42.90
2018-07-03T17:04:09.310Z,42.70
2018-07-03T17:06:36.454Z,42.60
2018-07-03T17:09:05.375Z,42.50
2018-07-03T17:11:32.305Z,41.90
2018-07-03T17:13:59.460Z,42.00
2018-07-03T17:16:26.979Z,41.70
2018-07-03T17:18:59.397Z,41.90
2018-07-03T17:21:26.368Z,41.90
2018-07-03T17:23:53.620Z,41.80
2018-07-03T17:26:21.769Z,41.50
2018-07-03T17:28:49.532Z,41.30
2018-07-03T17:31:16.485Z,41.30
2018-07-03T17:33:43.943Z,40.90
2018-07-03T17:36:12.137Z,40.40
2018-07-03T17:38:40.567Z,39.90
2018-07-03T17:41:13.169Z,40.10
2018-07-03T17:44:15.711Z,40.00
2018-07-03T17:46:43.361Z,40.40
2018-07-03T17:49:10.477Z,40.60
2018-07-03T17:51:37.872Z,40.70
2018-07-03T17:54:06.447Z,40.80
2018-07-03T17:56:33.419Z,40.80
2018-07-03T17:59:01.484Z,40.80
2018-07-03T18:01:28.720Z,40.70
2018-07-03T18:03:56.048Z,40.50
2018-07-03T18:06:23.161Z,40.20
2018-07-03T18:08:51.084Z,40.00
2018-07-03T18:11:18.460Z,39.90
2018-07-03T18:13:45.669Z,39.80
2018-07-03T18:18:39.428Z,40.00
2018-07-03T18:21:06.370Z,39.80
2018-07-03T18:23:33.675Z,39.80
2018-07-03T18:26:01.130Z,39.70
2018-07-03T18:28:28.529Z,39.80
2018-07-03T18:30:55.484Z,39.80
2018-07-03T18:33:22.408Z,39.90
2018-07-03T18:35:50.102Z,39.70
2018-07-03T18:38:17.020Z,39.60
2018-07-03T18:40:44.434Z,39.30
2018-07-03T18:43:12.015Z,39.80
2018-07-03T18:45:39.553Z,39.10
2018-07-03T18:48:07.149Z,39.20
2018-07-03T18:50:34.928Z,39.40
2018-07-03T18:53:01.889Z,39.50
2018-07-03T18:55:29.687Z,39.50
2018-07-03T18:57:57.302Z,39.40
2018-07-03T19:00:24.303Z,39.60
2018-07-03T19:02:51.997Z,39.60
2018-07-03T19:05:19.889Z,39.50
2018-07-03T19:07:47.636Z,40.10
2018-07-03T19:10:14.799Z,39.40
2018-07-03T19:12:41.691Z,39.20
2018-07-03T19:15:08.624Z,39.20
2018-07-03T19:17:35.532Z,39.20
2018-07-03T19:20:03.004Z,39.20
2018-07-03T19:22:30.393Z,39.50
2018-07-03T19:24:57.631Z,39.20
2018-07-03T19:27:25.526Z,39.10
2018-07-03T19:29:52.853Z,39.10
2018-07-03T19:32:20.308Z,39.30
2018-07-03T19:34:47.615Z,39.40
2018-07-03T19:37:14.732Z,39.40
2018-07-03T19:39:41.668Z,39.30
2018-07-03T19:42:08.772Z,39.40
2018-07-03T19:44:36.611Z,39.40
2018-07-03T19:47:03.677Z,39.30
2018-07-03T19:49:30.624Z,39.20
2018-07-03T19:51:57.515Z,39.10
2018-07-03T19:54:26.151Z,39.20
2018-07-03T19:56:54.076Z,39.30
2018-07-03T19:59:21.116Z,39.40
2018-07-03T20:01:48.019Z,39.50
2018-07-03T20:04:15.616Z,39.60
2018-07-03T20:06:42.521Z,39.60
2018-07-03T20:09:11.037Z,39.60
2018-07-03T20:11:37.915Z,39.60
2018-07-03T20:14:05.165Z,39.80
2018-07-03T20:16:33.033Z,39.80
2018-07-03T20:19:00.104Z,39.70
2018-07-03T20:21:26.915Z,39.80
2018-07-03T20:23:53.844Z,39.70
2018-07-03T20:26:20.742Z,39.80
2018-07-03T20:28:48.097Z,39.70
2018-07-03T20:31:15.269Z,39.80
2018-07-03T20:33:42.636Z,39.70
2018-07-03T20:36:09.543Z,39.60
2018-07-03T20:41:05.324Z,39.70
2018-07-03T20:43:34.089Z,39.80
2018-07-03T20:46:01.061Z,39.90
2018-07-03T20:48:28.281Z,39.70
2018-07-03T20:53:23.024Z,39.30
2018-07-03T20:55:51.485Z,39.10
2018-07-03T20:58:18.548Z,39.10
2018-07-03T21:00:45.524Z,39.10
2018-07-03T21:03:12.455Z,39.20
2018-07-03T21:05:39.418Z,39.50
2018-07-03T21:08:07.452Z,39.50
2018-07-03T21:10:35.111Z,39.80
2018-07-03T21:13:03.796Z,39.30
2018-07-03T21:15:30.828Z,39.10
2018-07-03T21:17:58.482Z,39.40
2018-07-03T21:20:27.168Z,39.50
2018-07-03T21:22:55.297Z,39.60
2018-07-03T21:25:24.993Z,40.00
2018-07-03T21:27:52.647Z,39.70
2018-07-03T21:30:20.725Z,39.90
2018-07-03T21:32:49.005Z,40.00
2018-07-03T21:37:44.011Z,39.60
2018-07-03T21:40:11.357Z,40.40
2018-07-03T21:42:40.167Z,39.90
2018-07-03T21:45:07.384Z,39.90
2018-07-03T21:47:34.814Z,39.90
2018-07-03T21:50:01.934Z,39.90
2018-07-03T21:52:28.853Z,40.00
2018-07-03T21:54:55.780Z,40.00
2018-07-03T21:57:23.747Z,40.10
2018-07-03T21:59:50.688Z,40.10
2018-07-03T22:02:17.576Z,40.10
2018-07-03T22:07:11.421Z,40.30
2018-07-03T22:09:39.768Z,40.20
2018-07-03T22:12:06.713Z,40.30
2018-07-03T22:14:35.727Z,40.50
2018-07-03T22:17:02.637Z,40.60
2018-07-03T22:19:29.556Z,40.70
2018-07-03T22:21:56.568Z,40.70
2018-07-03T22:24:23.424Z,40.70
2018-07-03T22:26:50.370Z,40.80
2018-07-03T22:29:17.275Z,40.90
2018-07-03T22:31:44.164Z,41.00
2018-07-03T22:34:11.063Z,41.30
2018-07-03T22:36:37.976Z,41.20
2018-07-03T22:41:31.755Z,41.30
2018-07-03T22:43:58.686Z,41.40
2018-07-03T22:46:25.584Z,41.50
2018-07-03T22:48:52.516Z,41.50
2018-07-03T22:51:19.410Z,41.50
2018-07-03T22:53:46.324Z,41.60
2018-07-03T22:56:13.198Z,41.70
2018-07-03T22:58:40.141Z,41.80
2018-07-03T23:01:07.028Z,41.80
2018-07-03T23:03:33.925Z,41.80
2018-07-03T23:06:00.880Z,41.90
2018-07-03T23:08:27.783Z,41.90
2018-07-03T23:10:54.847Z,42.00
2018-07-03T23:13:21.756Z,42.00
2018-07-03T23:15:48.636Z,42.10
2018-07-03T23:18:15.720Z,42.10
2018-07-03T23:20:42.626Z,42.20
2018-07-03T23:23:09.517Z,42.30
2018-07-03T23:25:36.408Z,42.30
2018-07-03T23:28:03.504Z,42.40
2018-07-03T23:30:30.439Z,42.40
2018-07-03T23:32:57.322Z,42.40
2018-07-03T23:35:24.280Z,42.50
2018-07-03T23:37:51.163Z,42.50
2018-07-03T23:40:18.088Z,42.60
2018-07-03T23:42:44.984Z,42.60
2018-07-03T23:45:11.910Z,42.60
2018-07-03T23:47:44.484Z,42.60
2018-07-03T23:50:17.122Z,42.70
2018-07-03T23:52:49.678Z,42.70
2018-07-03T23:55:22.220Z,42.80
2018-07-03T23:57:54.807Z,42.80
